KSLG/SLG METAR and TAF weather

Enter ICAO airport designator
Station Type Date Time Source
KSLG METAR 2020/01/18 12:56 UTC NOAA

KSLG 181256Z AUTO 30013KT 10SM BKN017 08/06 A3011 RMK AO2 SLP197 T00830061 TSNO


Station Type Date Time Source
KSLG Decoded METAR 2020/01/18 12:56 UTC NOAA

Siloam Springs, Smith Field Airport, AR, United States (KSLG) 36-12N 094-29W
Jan 18, 2020 - 07:56 AM EST / 2020.01.18 1256 UTC
Wind: from the WNW (300 degrees) at 15 MPH (13 KT):0
Visibility: 10 mile(s):0
Sky conditions: mostly cloudy
Temperature: 46.9 F (8.3 C)
Dew Point: 43.0 F (6.1 C)
Relative Humidity: 86%
Pressure (altimeter): 30.11 in. Hg (1019 hPa)
ob: KSLG 181256Z AUTO 30013KT 10SM BKN017 08/06 A3011 RMK AO2 SLP197 T00830061 TSNO
cycle: 13

Station Type Date Time Source
KSLG TAF UTC NOAA

Error!

Example: see airport list